Mr Musty — TCA4696 — position and weather

sailwx.info

Track history (hours):
 
Tides and Currents Weather Stations Pressure Air Temp Water Temp Dewpoint Dewpoint Depression Visibility Wind Speed Wind Dir Waves Ship Positions

Mr Musty

Last reported at 2017-Nov-19 15:22 UTC. Time now 2017-Nov-20 09:52 UTC.
Position N 36°48' E 030°35'.

Length 22 m.

Type: Passenger vessel. MMSI: 271045371.

Date/timePositionNaut miles runAvg speedWind from/ knotsBaromVisibWave heightAir tempDewpointWater temp
2017-Nov-19 15:22N 36°48' E 030°35'0 0.0
2017-Nov-19 14:55N 36°48' E 030°35'0 0.0
2017-Nov-19 14:28N 36°48' E 030°35'0 0.0
2017-Nov-19 13:58N 36°48' E 030°35'0 0.0
2017-Nov-19 13:28N 36°48' E 030°35'0 0.0
2017-Nov-19 12:58N 36°48' E 030°35'0 0.0
2017-Nov-19 12:28N 36°48' E 030°35'0 0.0
2017-Nov-19 11:58N 36°48' E 030°35'1 2.3
2017-Nov-19 11:30N 36°47' E 030°35'4 7.5
2017-Nov-19 11:00N 36°43' E 030°35'4 7.6
2017-Nov-19 10:31N 36°40' E 030°35'4 0.2
2017-Nov-18 17:33N 36°36' E 030°35'0 0.2
2017-Nov-18 17:30N 36°36' E 030°35'2 3.4
2017-Nov-18 17:00N 36°37' E 030°36'3 6.6
2017-Nov-18 16:30N 36°41' E 030°36'3 6.6
2017-Nov-18 16:00N 36°44' E 030°36'3 7.0
2017-Nov-18 15:30N 36°47' E 030°35'1 0.8
2017-Nov-18 14:31N 36°48' E 030°35'0 0.1
2017-Nov-18 14:28N 36°48' E 030°35'  
Track history (hours):
 
Tides and Currents Weather Stations Pressure Air Temp Water Temp Dewpoint Dewpoint Depression Visibility Wind Speed Wind Dir Waves Ship Positions

Mr Musty

Last reported at 2017-Nov-19 15:22 UTC. Time now 2017-Nov-20 09:52 UTC.
Position N 36°48' E 030°35'.

Length 22 m.

Type: Passenger vessel. MMSI: 271045371.

Date/timePositionNaut miles runAvg speedWind from/ knotsBaromVisibWave heightAir tempDewpointWater temp
2017-Nov-19 15:22N 36°48' E 030°35'0 0.0
2017-Nov-19 14:55N 36°48' E 030°35'0 0.0
2017-Nov-19 14:28N 36°48' E 030°35'0 0.0
2017-Nov-19 13:58N 36°48' E 030°35'0 0.0
2017-Nov-19 13:28N 36°48' E 030°35'0 0.0
2017-Nov-19 12:58N 36°48' E 030°35'0 0.0
2017-Nov-19 12:28N 36°48' E 030°35'0 0.0
2017-Nov-19 11:58N 36°48' E 030°35'1 2.3
2017-Nov-19 11:30N 36°47' E 030°35'4 7.5
2017-Nov-19 11:00N 36°43' E 030°35'4 7.6
2017-Nov-19 10:31N 36°40' E 030°35'4 0.2
2017-Nov-18 17:33N 36°36' E 030°35'0 0.2
2017-Nov-18 17:30N 36°36' E 030°35'2 3.4
2017-Nov-18 17:00N 36°37' E 030°36'3 6.6
2017-Nov-18 16:30N 36°41' E 030°36'3 6.6
2017-Nov-18 16:00N 36°44' E 030°36'3 7.0
2017-Nov-18 15:30N 36°47' E 030°35'1 0.8
2017-Nov-18 14:31N 36°48' E 030°35'0 0.1
2017-Nov-18 14:28N 36°48' E 030°35'  

Dump ship's entire track history